sensor_id;sensor_type;location;lat;lon;timestamp;pressure;altitude;pressure_sealevel;temperature;humidity
43155;BME280;34212;51.018;13.586;2024-01-06T00:04:44;96648.97;;;6.12;86.04
43155;BME280;34212;51.018;13.586;2024-01-06T00:09:45;96654.25;;;6.12;86.18
43155;BME280;34212;51.018;13.586;2024-01-06T00:14:47;96660.38;;;6.12;86.18
43155;BME280;34212;51.018;13.586;2024-01-06T00:19:50;96664.84;;;6.12;86.09
43155;BME280;34212;51.018;13.586;2024-01-06T00:24:53;96662.56;;;6.09;86.23
43155;BME280;34212;51.018;13.586;2024-01-06T00:29:54;96674.16;;;6.08;86.09
43155;BME280;34212;51.018;13.586;2024-01-06T00:34:56;96675.78;;;6.09;86.03
43155;BME280;34212;51.018;13.586;2024-01-06T00:39:59;96671.50;;;6.08;85.77
43155;BME280;34212;51.018;13.586;2024-01-06T00:45:00;96678.50;;;6.00;85.64
43155;BME280;34212;51.018;13.586;2024-01-06T00:50:02;96689.66;;;5.88;85.01
43155;BME280;34212;51.018;13.586;2024-01-06T00:55:04;96689.53;;;5.81;84.87
43155;BME280;34212;51.018;13.586;2024-01-06T01:00:06;96691.53;;;5.79;85.47
43155;BME280;34212;51.018;13.586;2024-01-06T01:05:07;96700.47;;;5.78;85.32
43155;BME280;34212;51.018;13.586;2024-01-06T01:10:09;96700.84;;;5.75;85.30
43155;BME280;34212;51.018;13.586;2024-01-06T01:15:11;96692.25;;;5.73;84.75
43155;BME280;34212;51.018;13.586;2024-01-06T01:20:13;96692.91;;;5.75;85.01
43155;BME280;34212;51.018;13.586;2024-01-06T01:25:14;96702.13;;;5.79;85.31
43155;BME280;34212;51.018;13.586;2024-01-06T01:30:16;96694.03;;;5.81;85.83
43155;BME280;34212;51.018;13.586;2024-01-06T01:35:18;96691.84;;;5.84;85.86
43155;BME280;34212;51.018;13.586;2024-01-06T01:40:19;96687.38;;;5.85;85.39
43155;BME280;34212;51.018;13.586;2024-01-06T01:45:21;96695.50;;;5.83;85.67
43155;BME280;34212;51.018;13.586;2024-01-06T01:50:23;96702.13;;;5.79;85.08
43155;BME280;34212;51.018;13.586;2024-01-06T01:55:26;96702.19;;;5.71;84.75
43155;BME280;34212;51.018;13.586;2024-01-06T02:00:27;96703.41;;;5.60;83.95
43155;BME280;34212;51.018;13.586;2024-01-06T02:05:29;96704.81;;;5.48;83.41
43155;BME280;34212;51.018;13.586;2024-01-06T02:10:31;96706.69;;;5.39;84.05
43155;BME280;34212;51.018;13.586;2024-01-06T02:15:33;96701.09;;;5.34;84.14
43155;BME280;34212;51.018;13.586;2024-01-06T02:20:34;96705.72;;;5.32;83.95
43155;BME280;34212;51.018;13.586;2024-01-06T02:25:36;96703.63;;;5.27;84.31
43155;BME280;34212;51.018;13.586;2024-01-06T02:30:38;96705.78;;;5.24;83.89
43155;BME280;34212;51.018;13.586;2024-01-06T02:35:39;96708.94;;;5.19;83.58
43155;BME280;34212;51.018;13.586;2024-01-06T02:40:41;96704.66;;;5.18;84.64
43155;BME280;34212;51.018;13.586;2024-01-06T02:45:44;96706.47;;;5.18;84.17
43155;BME280;34212;51.018;13.586;2024-01-06T02:50:45;96710.41;;;5.22;84.70
43155;BME280;34212;51.018;13.586;2024-01-06T02:55:47;96724.28;;;5.24;84.78
43155;BME280;34212;51.018;13.586;2024-01-06T03:00:48;96725.09;;;5.24;85.04
43155;BME280;34212;51.018;13.586;2024-01-06T03:05:50;96723.94;;;5.27;85.00
43155;BME280;34212;51.018;13.586;2024-01-06T03:10:52;96727.88;;;5.31;85.03
43155;BME280;34212;51.018;13.586;2024-01-06T03:15:53;96741.91;;;5.31;84.91
43155;BME280;34212;51.018;13.586;2024-01-06T03:20:55;96734.53;;;5.27;84.69
43155;BME280;34212;51.018;13.586;2024-01-06T03:25:57;96736.84;;;5.22;84.37
43155;BME280;34212;51.018;13.586;2024-01-06T03:30:59;96739.69;;;5.12;84.17
43155;BME280;34212;51.018;13.586;2024-01-06T03:36:05;96741.38;;;5.05;83.96
43155;BME280;34212;51.018;13.586;2024-01-06T03:41:07;96742.69;;;5.01;83.87
43155;BME280;34212;51.018;13.586;2024-01-06T03:46:09;96745.69;;;4.98;83.76
43155;BME280;34212;51.018;13.586;2024-01-06T03:51:12;96743.88;;;4.98;84.82
43155;BME280;34212;51.018;13.586;2024-01-06T03:56:13;96741.72;;;5.02;85.14
43155;BME280;34212;51.018;13.586;2024-01-06T04:01:15;96738.56;;;5.06;85.59
43155;BME280;34212;51.018;13.586;2024-01-06T04:06:16;96732.94;;;5.09;85.79
43155;BME280;34212;51.018;13.586;2024-01-06T04:11:19;96742.84;;;5.07;85.21
43155;BME280;34212;51.018;13.586;2024-01-06T04:16:20;96747.16;;;5.00;84.20
43155;BME280;34212;51.018;13.586;2024-01-06T04:21:22;96737.81;;;4.90;83.70
43155;BME280;34212;51.018;13.586;2024-01-06T04:26:24;96736.81;;;4.82;83.16
43155;BME280;34212;51.018;13.586;2024-01-06T04:31:25;96741.97;;;4.76;83.73
43155;BME280;34212;51.018;13.586;2024-01-06T04:36:27;96752.53;;;4.76;83.68
43155;BME280;34212;51.018;13.586;2024-01-06T04:41:29;96743.13;;;4.73;84.01
43155;BME280;34212;51.018;13.586;2024-01-06T04:46:30;96744.94;;;4.73;83.75
43155;BME280;34212;51.018;13.586;2024-01-06T04:51:32;96757.31;;;4.72;83.96
43155;BME280;34212;51.018;13.586;2024-01-06T04:56:33;96762.59;;;4.72;84.14
43155;BME280;34212;51.018;13.586;2024-01-06T05:01:37;96760.78;;;4.73;84.19
43155;BME280;34212;51.018;13.586;2024-01-06T05:06:39;96761.28;;;4.76;84.57
43155;BME280;34212;51.018;13.586;2024-01-06T05:11:43;96759.97;;;4.80;85.29
43155;BME280;34212;51.018;13.586;2024-01-06T05:16:44;96766.69;;;4.91;85.28
43155;BME280;34212;51.018;13.586;2024-01-06T05:21:49;96761.53;;;4.98;85.17
43155;BME280;34212;51.018;13.586;2024-01-06T05:26:50;96775.91;;;5.03;85.65
43155;BME280;34212;51.018;13.586;2024-01-06T05:31:52;96780.16;;;5.13;86.13
43155;BME280;34212;51.018;13.586;2024-01-06T05:36:54;96781.78;;;5.22;86.13
43155;BME280;34212;51.018;13.586;2024-01-06T05:41:56;96781.78;;;5.22;85.47
43155;BME280;34212;51.018;13.586;2024-01-06T05:46:58;96795.34;;;5.19;85.27
43155;BME280;34212;51.018;13.586;2024-01-06T05:51:59;96801.63;;;5.18;85.45
43155;BME280;34212;51.018;13.586;2024-01-06T05:57:01;96816.81;;;5.24;86.02
43155;BME280;34212;51.018;13.586;2024-01-06T06:02:02;96826.38;;;5.33;86.58
43155;BME280;34212;51.018;13.586;2024-01-06T06:07:04;96824.69;;;5.40;86.60
43155;BME280;34212;51.018;13.586;2024-01-06T06:12:06;96827.44;;;5.47;87.12
43155;BME280;34212;51.018;13.586;2024-01-06T06:17:08;96836.81;;;5.57;88.07
43155;BME280;34212;51.018;13.586;2024-01-06T06:22:09;96848.84;;;5.68;88.32
43155;BME280;34212;51.018;13.586;2024-01-06T06:27:11;96849.00;;;5.75;88.53
43155;BME280;34212;51.018;13.586;2024-01-06T06:32:12;96848.63;;;5.78;88.36
43155;BME280;34212;51.018;13.586;2024-01-06T06:37:14;96863.81;;;5.84;88.39
43155;BME280;34212;51.018;13.586;2024-01-06T06:42:15;96865.13;;;5.88;88.29
43155;BME280;34212;51.018;13.586;2024-01-06T06:47:17;96874.72;;;5.89;88.16
43155;BME280;34212;51.018;13.586;2024-01-06T06:52:18;96891.44;;;5.90;88.09
43155;BME280;34212;51.018;13.586;2024-01-06T06:57:20;96891.59;;;5.88;88.12
43155;BME280;34212;51.018;13.586;2024-01-06T07:02:22;96900.19;;;5.90;87.81
43155;BME280;34212;51.018;13.586;2024-01-06T07:07:24;96901.34;;;5.88;87.49
43155;BME280;34212;51.018;13.586;2024-01-06T07:12:25;96906.16;;;5.84;87.83
43155;BME280;34212;51.018;13.586;2024-01-06T07:17:28;96907.81;;;5.85;87.83
43155;BME280;34212;51.018;13.586;2024-01-06T07:22:30;96919.72;;;5.89;87.83
43155;BME280;34212;51.018;13.586;2024-01-06T07:27:31;96917.88;;;5.90;88.03
43155;BME280;34212;51.018;13.586;2024-01-06T07:32:34;96924.66;;;5.92;88.41
43155;BME280;34212;51.018;13.586;2024-01-06T07:37:36;96931.28;;;5.96;88.62
43155;BME280;34212;51.018;13.586;2024-01-06T07:42:37;96930.41;;;6.04;88.42
43155;BME280;34212;51.018;13.586;2024-01-06T07:47:39;96935.66;;;6.12;88.76
43155;BME280;34212;51.018;13.586;2024-01-06T07:52:40;96942.25;;;6.16;88.80
43155;BME280;34212;51.018;13.586;2024-01-06T07:57:42;96935.50;;;6.14;88.30
43155;BME280;34212;51.018;13.586;2024-01-06T08:02:44;96956.03;;;6.12;88.87
43155;BME280;34212;51.018;13.586;2024-01-06T08:07:46;96953.69;;;6.17;89.19
43155;BME280;34212;51.018;13.586;2024-01-06T08:12:47;96960.91;;;6.23;89.08
43155;BME280;34212;51.018;13.586;2024-01-06T08:17:49;96964.19;;;6.33;89.77
43155;BME280;34212;51.018;13.586;2024-01-06T08:22:51;96979.53;;;6.46;89.66
43155;BME280;34212;51.018;13.586;2024-01-06T08:27:53;96980.94;;;6.57;89.66
43155;BME280;34212;51.018;13.586;2024-01-06T08:32:54;96985.19;;;6.66;90.22
43155;BME280;34212;51.018;13.586;2024-01-06T08:37:56;96984.56;;;6.64;89.20
43155;BME280;34212;51.018;13.586;2024-01-06T08:42:57;96998.44;;;6.66;90.14
43155;BME280;34212;51.018;13.586;2024-01-06T08:47:59;96996.75;;;6.73;90.25
43155;BME280;34212;51.018;13.586;2024-01-06T08:53:01;97010.75;;;6.82;90.76
43155;BME280;34212;51.018;13.586;2024-01-06T08:58:03;97009.25;;;6.87;90.22
43155;BME280;34212;51.018;13.586;2024-01-06T09:03:04;97012.56;;;6.89;90.87
43155;BME280;34212;51.018;13.586;2024-01-06T09:08:06;97016.44;;;7.02;91.64
43155;BME280;34212;51.018;13.586;2024-01-06T09:13:08;97023.63;;;7.16;91.96
43155;BME280;34212;51.018;13.586;2024-01-06T09:18:09;97027.22;;;7.23;91.24
43155;BME280;34212;51.018;13.586;2024-01-06T09:23:12;97034.47;;;7.29;91.60
43155;BME280;34212;51.018;13.586;2024-01-06T09:28:13;97037.63;;;7.48;92.42
43155;BME280;34212;51.018;13.586;2024-01-06T09:33:15;97050.91;;;7.62;91.78
43155;BME280;34212;51.018;13.586;2024-01-06T09:38:20;97052.34;;;7.73;92.13
43155;BME280;34212;51.018;13.586;2024-01-06T09:43:21;97052.53;;;7.86;92.43
43155;BME280;34212;51.018;13.586;2024-01-06T09:48:28;97050.16;;;7.92;92.44
43155;BME280;34212;51.018;13.586;2024-01-06T09:53:34;97048.44;;;7.99;92.35
43155;BME280;34212;51.018;13.586;2024-01-06T09:58:38;97051.38;;;8.04;92.52
43155;BME280;34212;51.018;13.586;2024-01-06T10:03:40;97050.91;;;8.15;93.24
43155;BME280;34212;51.018;13.586;2024-01-06T10:08:43;97039.19;;;8.24;93.54
43155;BME280;34212;51.018;13.586;2024-01-06T10:13:44;97040.72;;;8.33;93.70
43155;BME280;34212;51.018;13.586;2024-01-06T10:18:46;97040.22;;;8.38;93.12
43155;BME280;34212;51.018;13.586;2024-01-06T10:23:54;97037.25;;;8.33;92.31
43155;BME280;34212;51.018;13.586;2024-01-06T10:28:56;97043.38;;;8.33;92.57
43155;BME280;34212;51.018;13.586;2024-01-06T10:33:58;97042.88;;;8.38;92.41
43155;BME280;34212;51.018;13.586;2024-01-06T10:38:59;97039.28;;;8.46;93.34
43155;BME280;34212;51.018;13.586;2024-01-06T10:44:04;97039.56;;;8.51;92.88
43155;BME280;34212;51.018;13.586;2024-01-06T10:49:08;97024.06;;;8.54;92.76
43155;BME280;34212;51.018;13.586;2024-01-06T10:54:12;97041.28;;;8.59;93.03
43155;BME280;34212;51.018;13.586;2024-01-06T10:59:14;97029.09;;;8.64;92.70
43155;BME280;34212;51.018;13.586;2024-01-06T11:04:16;97041.00;;;8.68;92.91
43155;BME280;34212;51.018;13.586;2024-01-06T11:09:24;97044.28;;;8.70;92.42
43155;BME280;34212;51.018;13.586;2024-01-06T11:14:28;97054.94;;;8.70;92.48
43155;BME280;34212;51.018;13.586;2024-01-06T11:24:47;97055.03;;;8.62;92.34
43155;BME280;34212;51.018;13.586;2024-01-06T11:29:53;97056.78;;;8.55;92.19
43155;BME280;34212;51.018;13.586;2024-01-06T11:35:09;97061.81;;;8.50;91.25
43155;BME280;34212;51.018;13.586;2024-01-06T11:40:15;97060.59;;;8.38;91.87
43155;BME280;34212;51.018;13.586;2024-01-06T11:45:17;97060.72;;;8.29;90.91
43155;BME280;34212;51.018;13.586;2024-01-06T11:50:19;97062.06;;;8.25;91.86
43155;BME280;34212;51.018;13.586;2024-01-06T11:55:21;97055.94;;;8.25;91.75
43155;BME280;34212;51.018;13.586;2024-01-06T12:00:23;97059.59;;;8.24;91.42
43155;BME280;34212;51.018;13.586;2024-01-06T12:05:25;97057.13;;;8.22;91.03
43155;BME280;34212;51.018;13.586;2024-01-06T12:10:28;97043.47;;;8.25;90.97
43155;BME280;34212;51.018;13.586;2024-01-06T12:15:31;97064.09;;;8.23;91.90
43155;BME280;34212;51.018;13.586;2024-01-06T12:20:33;97065.75;;;8.24;91.80
43155;BME280;34212;51.018;13.586;2024-01-06T12:25:35;97067.22;;;8.27;91.55
43155;BME280;34212;51.018;13.586;2024-01-06T12:30:41;97082.34;;;8.26;90.94
43155;BME280;34212;51.018;13.586;2024-01-06T12:35:43;97076.06;;;8.19;90.69
43155;BME280;34212;51.018;13.586;2024-01-06T12:40:46;97079.38;;;8.21;91.25
43155;BME280;34212;51.018;13.586;2024-01-06T12:45:48;97074.44;;;8.18;90.58
43155;BME280;34212;51.018;13.586;2024-01-06T12:50:50;97084.97;;;8.12;90.06
43155;BME280;34212;51.018;13.586;2024-01-06T12:55:52;97090.00;;;8.06;89.82
43155;BME280;34212;51.018;13.586;2024-01-06T13:00:53;97088.25;;;7.99;89.73
43155;BME280;34212;51.018;13.586;2024-01-06T13:05:55;97095.47;;;7.90;89.90
43155;BME280;34212;51.018;13.586;2024-01-06T13:10:56;97101.94;;;7.87;90.19
43155;BME280;34212;51.018;13.586;2024-01-06T13:16:00;97110.94;;;7.86;90.01
43155;BME280;34212;51.018;13.586;2024-01-06T13:21:04;97114.97;;;7.82;89.48
43155;BME280;34212;51.018;13.586;2024-01-06T13:26:06;97113.66;;;7.78;89.54
43155;BME280;34212;51.018;13.586;2024-01-06T13:31:10;97129.09;;;7.75;89.52
43155;BME280;34212;51.018;13.586;2024-01-06T13:36:11;97114.56;;;7.71;89.68
43155;BME280;34212;51.018;13.586;2024-01-06T13:41:13;97124.06;;;7.65;88.69
43155;BME280;34212;51.018;13.586;2024-01-06T13:46:14;97129.06;;;7.60;89.22
43155;BME280;34212;51.018;13.586;2024-01-06T13:51:16;97126.13;;;7.55;88.98
43155;BME280;34212;51.018;13.586;2024-01-06T13:56:17;97131.13;;;7.50;88.64
43155;BME280;34212;51.018;13.586;2024-01-06T14:01:19;97135.66;;;7.41;88.73
43155;BME280;34212;51.018;13.586;2024-01-06T14:06:21;97137.69;;;7.39;88.10
43155;BME280;34212;51.018;13.586;2024-01-06T14:11:23;97134.06;;;7.32;88.03
43155;BME280;34212;51.018;13.586;2024-01-06T14:16:26;97154.53;;;7.23;88.48
43155;BME280;34212;51.018;13.586;2024-01-06T14:21:28;97149.91;;;7.17;87.89
43155;BME280;34212;51.018;13.586;2024-01-06T14:26:30;97152.59;;;7.09;87.97
43155;BME280;34212;51.018;13.586;2024-01-06T14:31:32;97167.84;;;7.07;88.12
43155;BME280;34212;51.018;13.586;2024-01-06T14:36:34;97170.69;;;7.05;88.35
43155;BME280;34212;51.018;13.586;2024-01-06T14:41:36;97179.31;;;7.07;87.94
43155;BME280;34212;51.018;13.586;2024-01-06T14:46:37;97192.72;;;7.06;87.77
43155;BME280;34212;51.018;13.586;2024-01-06T14:51:39;97189.75;;;7.01;87.50
43155;BME280;34212;51.018;13.586;2024-01-06T14:56:40;97186.81;;;6.96;87.87
43155;BME280;34212;51.018;13.586;2024-01-06T15:01:43;97189.31;;;6.89;87.38
43155;BME280;34212;51.018;13.586;2024-01-06T15:06:46;97199.78;;;6.82;87.35
43155;BME280;34212;51.018;13.586;2024-01-06T15:11:48;97209.38;;;6.75;86.79
43155;BME280;34212;51.018;13.586;2024-01-06T15:16:49;97210.06;;;6.69;87.33
43155;BME280;34212;51.018;13.586;2024-01-06T15:21:51;97225.66;;;6.64;86.82
43155;BME280;34212;51.018;13.586;2024-01-06T15:26:53;97224.66;;;6.57;86.75
43155;BME280;34212;51.018;13.586;2024-01-06T15:31:55;97228.50;;;6.54;86.76
43155;BME280;34212;51.018;13.586;2024-01-06T15:36:59;97247.53;;;6.50;87.05
43155;BME280;34212;51.018;13.586;2024-01-06T15:42:01;97243.25;;;6.40;86.27
43155;BME280;34212;51.018;13.586;2024-01-06T15:47:03;97246.91;;;6.31;85.99
43155;BME280;34212;51.018;13.586;2024-01-06T15:52:04;97244.59;;;6.20;86.45
43155;BME280;34212;51.018;13.586;2024-01-06T15:57:09;97251.03;;;6.09;86.67
43155;BME280;34212;51.018;13.586;2024-01-06T16:02:11;97252.88;;;6.09;86.51
43155;BME280;34212;51.018;13.586;2024-01-06T16:07:12;97256.84;;;6.05;86.00
43155;BME280;34212;51.018;13.586;2024-01-06T16:12:14;97251.69;;;6.03;86.25
43155;BME280;34212;51.018;13.586;2024-01-06T16:17:17;97251.88;;;6.01;86.12
43155;BME280;34212;51.018;13.586;2024-01-06T16:22:19;97262.28;;;6.03;86.12
43155;BME280;34212;51.018;13.586;2024-01-06T16:27:20;97248.22;;;6.03;86.15
43155;BME280;34212;51.018;13.586;2024-01-06T16:32:22;97265.75;;;6.04;86.31
43155;BME280;34212;51.018;13.586;2024-01-06T16:37:23;97256.50;;;6.08;86.26
43155;BME280;34212;51.018;13.586;2024-01-06T16:42:25;97263.44;;;6.09;86.21
43155;BME280;34212;51.018;13.586;2024-01-06T16:47:27;97270.38;;;6.10;86.27
43155;BME280;34212;51.018;13.586;2024-01-06T16:52:28;97271.72;;;6.06;86.05
43155;BME280;34212;51.018;13.586;2024-01-06T16:57:30;97276.34;;;6.04;85.82
43155;BME280;34212;51.018;13.586;2024-01-06T17:02:33;97287.25;;;6.00;85.83
43155;BME280;34212;51.018;13.586;2024-01-06T17:07:34;97290.22;;;5.97;85.84
43155;BME280;34212;51.018;13.586;2024-01-06T17:12:36;97303.97;;;5.93;86.14
43155;BME280;34212;51.018;13.586;2024-01-06T17:17:38;97300.19;;;5.95;86.36
43155;BME280;34212;51.018;13.586;2024-01-06T17:22:40;97304.91;;;5.92;85.94
43155;BME280;34212;51.018;13.586;2024-01-06T17:27:44;97311.19;;;5.83;85.59
43155;BME280;34212;51.018;13.586;2024-01-06T17:32:49;97312.16;;;5.73;85.62
43155;BME280;34212;51.018;13.586;2024-01-06T17:37:52;97332.47;;;5.73;86.00
43155;BME280;34212;51.018;13.586;2024-01-06T17:42:53;97330.84;;;5.72;85.71
43155;BME280;34212;51.018;13.586;2024-01-06T17:47:55;97344.25;;;5.70;85.83
43155;BME280;34212;51.018;13.586;2024-01-06T17:52:57;97334.63;;;5.61;85.52
43155;BME280;34212;51.018;13.586;2024-01-06T17:57:58;97332.44;;;5.56;85.83
43155;BME280;34212;51.018;13.586;2024-01-06T18:03:00;97339.88;;;5.53;86.14
43155;BME280;34212;51.018;13.586;2024-01-06T18:08:02;97352.41;;;5.43;85.44
43155;BME280;34212;51.018;13.586;2024-01-06T18:13:04;97357.06;;;5.23;85.29
43155;BME280;34212;51.018;13.586;2024-01-06T18:18:06;97363.97;;;5.16;85.59
43155;BME280;34212;51.018;13.586;2024-01-06T18:23:07;97361.97;;;5.09;86.12
43155;BME280;34212;51.018;13.586;2024-01-06T18:28:09;97372.75;;;5.16;86.28
43155;BME280;34212;51.018;13.586;2024-01-06T18:33:10;97371.97;;;5.24;86.29
43155;BME280;34212;51.018;13.586;2024-01-06T18:38:12;97375.13;;;5.27;85.95
43155;BME280;34212;51.018;13.586;2024-01-06T18:43:14;97389.09;;;5.20;86.12
43155;BME280;34212;51.018;13.586;2024-01-06T18:48:15;97389.97;;;5.20;85.93
43155;BME280;34212;51.018;13.586;2024-01-06T18:53:17;97393.56;;;5.19;85.36
43155;BME280;34212;51.018;13.586;2024-01-06T18:58:21;97401.69;;;5.18;85.16
43155;BME280;34212;51.018;13.586;2024-01-06T19:03:22;97397.00;;;5.12;85.07
43155;BME280;34212;51.018;13.586;2024-01-06T19:08:24;97398.59;;;5.04;84.61
43155;BME280;34212;51.018;13.586;2024-01-06T19:13:25;97400.50;;;4.94;85.57
43155;BME280;34212;51.018;13.586;2024-01-06T19:18:28;97408.09;;;4.89;85.26
43155;BME280;34212;51.018;13.586;2024-01-06T19:23:29;97406.50;;;4.78;85.08
43155;BME280;34212;51.018;13.586;2024-01-06T19:28:31;97413.84;;;4.67;84.95
43155;BME280;34212;51.018;13.586;2024-01-06T19:33:32;97424.69;;;4.63;85.08
43155;BME280;34212;51.018;13.586;2024-01-06T19:38:34;97419.06;;;4.58;85.30
43155;BME280;34212;51.018;13.586;2024-01-06T19:43:36;97429.25;;;4.53;84.78
43155;BME280;34212;51.018;13.586;2024-01-06T19:48:37;97427.38;;;4.46;85.17
43155;BME280;34212;51.018;13.586;2024-01-06T19:53:39;97439.28;;;4.50;85.85
43155;BME280;34212;51.018;13.586;2024-01-06T19:58:41;97438.00;;;4.54;85.54
43155;BME280;34212;51.018;13.586;2024-01-06T20:03:43;97447.44;;;4.56;85.55
43155;BME280;34212;51.018;13.586;2024-01-06T20:08:45;97460.94;;;4.53;85.35
43155;BME280;34212;51.018;13.586;2024-01-06T20:13:47;97447.91;;;4.52;84.59
43155;BME280;34212;51.018;13.586;2024-01-06T20:18:52;97457.06;;;4.48;84.58
43155;BME280;34212;51.018;13.586;2024-01-06T20:23:54;97456.56;;;4.44;84.74
43155;BME280;34212;51.018;13.586;2024-01-06T20:28:55;97457.16;;;4.38;85.09
43155;BME280;34212;51.018;13.586;2024-01-06T20:33:59;97451.78;;;4.30;84.48
43155;BME280;34212;51.018;13.586;2024-01-06T20:39:01;97451.09;;;4.28;85.05
43155;BME280;34212;51.018;13.586;2024-01-06T20:44:02;97454.19;;;4.23;84.95
43155;BME280;34212;51.018;13.586;2024-01-06T20:49:06;97458.34;;;4.26;85.23
43155;BME280;34212;51.018;13.586;2024-01-06T20:54:08;97459.03;;;4.28;85.21
43155;BME280;34212;51.018;13.586;2024-01-06T20:59:10;97452.94;;;4.27;85.05
43155;BME280;34212;51.018;13.586;2024-01-06T21:04:11;97455.41;;;4.29;85.31
43155;BME280;34212;51.018;13.586;2024-01-06T21:09:13;97455.78;;;4.34;85.19
43155;BME280;34212;51.018;13.586;2024-01-06T21:14:14;97471.94;;;4.31;84.55
43155;BME280;34212;51.018;13.586;2024-01-06T21:19:17;97460.53;;;4.30;84.42
43155;BME280;34212;51.018;13.586;2024-01-06T21:24:20;97460.31;;;4.24;84.58
43155;BME280;34212;51.018;13.586;2024-01-06T21:29:22;97463.16;;;4.12;84.71
43155;BME280;34212;51.018;13.586;2024-01-06T21:34:24;97474.53;;;4.13;84.87
43155;BME280;34212;51.018;13.586;2024-01-06T21:39:26;97483.81;;;4.17;85.34
43155;BME280;34212;51.018;13.586;2024-01-06T21:44:28;97480.63;;;4.13;84.77
43155;BME280;34212;51.018;13.586;2024-01-06T21:49:29;97486.91;;;4.12;84.97
43155;BME280;34212;51.018;13.586;2024-01-06T21:54:31;97490.13;;;4.06;84.74
43155;BME280;34212;51.018;13.586;2024-01-06T21:59:33;97484.38;;;3.93;84.58
43155;BME280;34212;51.018;13.586;2024-01-06T22:04:35;97482.97;;;3.89;85.32
43155;BME280;34212;51.018;13.586;2024-01-06T22:09:36;97488.50;;;3.96;85.09
43155;BME280;34212;51.018;13.586;2024-01-06T22:14:38;97492.69;;;3.88;83.90
43155;BME280;34212;51.018;13.586;2024-01-06T22:19:39;97505.53;;;3.74;84.10
43155;BME280;34212;51.018;13.586;2024-01-06T22:24:42;97505.44;;;3.65;85.16
43155;BME280;34212;51.018;13.586;2024-01-06T22:29:44;97511.66;;;3.74;85.07
43155;BME280;34212;51.018;13.586;2024-01-06T22:34:45;97511.09;;;3.70;84.44
43155;BME280;34212;51.018;13.586;2024-01-06T22:39:47;97508.06;;;3.65;84.54
43155;BME280;34212;51.018;13.586;2024-01-06T22:44:49;97509.19;;;3.63;84.47
43155;BME280;34212;51.018;13.586;2024-01-06T22:49:50;97511.69;;;3.55;84.84
43155;BME280;34212;51.018;13.586;2024-01-06T22:54:52;97520.47;;;3.55;84.55
43155;BME280;34212;51.018;13.586;2024-01-06T22:59:53;97517.81;;;3.55;84.42
43155;BME280;34212;51.018;13.586;2024-01-06T23:04:55;97517.41;;;3.50;84.62
43155;BME280;34212;51.018;13.586;2024-01-06T23:09:59;97527.94;;;3.50;84.83
43155;BME280;34212;51.018;13.586;2024-01-06T23:15:01;97534.59;;;3.54;84.90
43155;BME280;34212;51.018;13.586;2024-01-06T23:20:03;97538.09;;;3.45;83.87
43155;BME280;34212;51.018;13.586;2024-01-06T23:25:06;97542.53;;;3.35;84.20
43155;BME280;34212;51.018;13.586;2024-01-06T23:30:08;97556.13;;;3.20;84.30
43155;BME280;34212;51.018;13.586;2024-01-06T23:35:10;97556.69;;;3.14;85.06
43155;BME280;34212;51.018;13.586;2024-01-06T23:40:12;97550.31;;;3.17;85.52
43155;BME280;34212;51.018;13.586;2024-01-06T23:45:14;97557.81;;;3.21;85.24
43155;BME280;34212;51.018;13.586;2024-01-06T23:50:16;97562.13;;;3.22;84.11
43155;BME280;34212;51.018;13.586;2024-01-06T23:55:18;97559.47;;;3.22;84.95
